createdAt,value
2022-10-17T00:00:43.234Z,6.17
2022-10-17T00:02:44.896Z,6.90
2022-10-17T00:04:46.493Z,6.53
2022-10-17T00:06:48.073Z,5.93
2022-10-17T00:08:49.713Z,5.77
2022-10-17T00:11:00.266Z,5.87
2022-10-17T00:13:02.119Z,6.00
2022-10-17T00:15:07.808Z,5.77
2022-10-17T00:17:09.481Z,5.27
2022-10-17T00:19:11.099Z,5.43
2022-10-17T00:21:17.558Z,5.30
2022-10-17T00:23:19.627Z,4.90
2022-10-17T00:25:21.283Z,5.20
2022-10-17T00:27:22.936Z,5.37
2022-10-17T00:29:24.551Z,4.83
2022-10-17T00:31:26.205Z,6.17
2022-10-17T00:33:29.435Z,6.00
2022-10-17T00:35:31.251Z,6.20
2022-10-17T00:37:33.582Z,5.97
2022-10-17T00:39:35.237Z,6.40
2022-10-17T00:41:36.852Z,5.40
2022-10-17T00:44:31.913Z,5.50
2022-10-17T00:46:38.441Z,5.80
2022-10-17T00:48:40.261Z,5.83
2022-10-17T00:50:44.377Z,5.30
2022-10-17T00:52:48.277Z,5.27
2022-10-17T00:54:54.662Z,5.63
2022-10-17T00:56:56.788Z,5.27
2022-10-17T00:58:58.957Z,5.20
2022-10-17T01:01:02.977Z,5.70
2022-10-17T01:03:05.030Z,5.47
2022-10-17T01:05:07.270Z,5.80
2022-10-17T01:07:10.031Z,5.17
2022-10-17T01:09:11.662Z,5.83
2022-10-17T01:11:37.991Z,5.63
2022-10-17T01:13:48.740Z,5.10
2022-10-17T01:16:07.857Z,5.70
2022-10-17T01:18:46.102Z,5.50
2022-10-17T01:21:24.796Z,5.07
2022-10-17T01:23:41.349Z,5.00
2022-10-17T01:25:45.689Z,5.00
2022-10-17T01:27:56.803Z,4.40
2022-10-17T01:30:16.645Z,4.57
2022-10-17T01:32:20.647Z,5.13
2022-10-17T01:34:33.517Z,4.60
2022-10-17T01:36:58.978Z,4.70
2022-10-17T01:39:30.233Z,5.17
2022-10-17T01:41:40.274Z,4.90
2022-10-17T01:43:51.352Z,5.00
2022-10-17T01:46:02.761Z,4.87
2022-10-17T01:48:11.601Z,4.03
2022-10-17T01:50:23.555Z,3.77
2022-10-17T01:52:31.339Z,3.80
2022-10-17T01:54:41.657Z,4.00
2022-10-17T01:56:45.939Z,3.63
2022-10-17T01:59:00.540Z,3.77
2022-10-17T02:01:06.774Z,3.70
2022-10-17T02:03:13.335Z,3.30
2022-10-17T02:05:17.460Z,3.53
2022-10-17T02:07:19.109Z,3.33
2022-10-17T02:09:26.260Z,4.00
2022-10-17T02:11:28.433Z,3.63
2022-10-17T02:13:32.698Z,3.50
2022-10-17T02:16:03.631Z,3.40
2022-10-17T02:18:33.751Z,3.53
2022-10-17T02:20:50.701Z,3.27
2022-10-17T02:22:57.040Z,3.07
2022-10-17T02:25:01.426Z,3.20
2022-10-17T02:27:12.591Z,3.23
2022-10-17T02:29:18.947Z,3.63
2022-10-17T02:31:25.447Z,3.47
2022-10-17T02:33:36.458Z,3.20
2022-10-17T02:35:43.497Z,2.97
2022-10-17T02:37:47.428Z,3.70
2022-10-17T02:39:51.135Z,3.57
2022-10-17T02:41:55.526Z,4.00
2022-10-17T02:44:00.196Z,3.93
2022-10-17T02:46:05.582Z,3.40
2022-10-17T02:48:18.284Z,3.20
2022-10-17T02:52:57.244Z,3.53
2022-10-17T02:55:05.414Z,3.07
2022-10-17T02:57:19.064Z,3.50
2022-10-17T02:59:23.038Z,3.60
2022-10-17T03:01:25.572Z,3.37
2022-10-17T03:03:30.138Z,3.50
2022-10-17T03:05:31.698Z,3.97
2022-10-17T03:07:33.393Z,3.63
2022-10-17T03:09:35.036Z,3.40
2022-10-17T03:11:36.661Z,3.83
2022-10-17T03:13:39.856Z,3.60
2022-10-17T03:15:41.764Z,3.47
2022-10-17T03:17:43.389Z,3.47
2022-10-17T03:19:44.988Z,3.33
2022-10-17T03:21:46.592Z,3.90
2022-10-17T03:23:48.272Z,4.57
2022-10-17T03:25:49.878Z,3.47
2022-10-17T03:27:51.964Z,3.80
2022-10-17T03:29:53.538Z,3.70
2022-10-17T03:31:55.149Z,3.60
2022-10-17T03:33:56.812Z,3.70
2022-10-17T03:35:58.403Z,3.30
2022-10-17T03:38:00.109Z,3.70
2022-10-17T03:40:01.787Z,3.67
2022-10-17T03:42:03.430Z,3.50
2022-10-17T03:44:05.159Z,3.60
2022-10-17T03:46:07.589Z,3.47
2022-10-17T03:48:09.259Z,3.57
2022-10-17T03:50:10.890Z,3.47
2022-10-17T03:52:13.597Z,3.40
2022-10-17T03:54:15.208Z,3.27
2022-10-17T03:56:24.502Z,3.37
2022-10-17T03:58:26.095Z,3.40
2022-10-17T04:00:27.675Z,3.43
2022-10-17T04:02:29.396Z,3.80
2022-10-17T04:04:31.029Z,3.50
2022-10-17T04:06:32.853Z,3.33
2022-10-17T04:08:35.081Z,3.63
2022-10-17T04:10:36.699Z,3.77
2022-10-17T04:12:38.476Z,3.47
2022-10-17T04:14:40.263Z,3.63
2022-10-17T04:16:41.885Z,3.87
2022-10-17T04:18:43.949Z,3.27
2022-10-17T04:20:45.547Z,3.60
2022-10-17T04:22:47.133Z,3.60
2022-10-17T04:24:49.070Z,3.40
2022-10-17T04:26:51.323Z,3.43
2022-10-17T04:28:53.223Z,3.53
2022-10-17T04:31:09.846Z,3.00
2022-10-17T04:33:11.469Z,4.10
2022-10-17T04:35:13.086Z,3.43
2022-10-17T04:37:14.717Z,3.10
2022-10-17T04:39:16.316Z,3.47
2022-10-17T04:41:19.055Z,3.30
2022-10-17T04:43:20.808Z,3.20
2022-10-17T04:45:22.389Z,3.60
2022-10-17T04:47:24.027Z,3.20
2022-10-17T04:49:25.663Z,3.60
2022-10-17T04:51:27.357Z,3.77
2022-10-17T04:53:32.205Z,3.27
2022-10-17T04:55:38.583Z,3.17
2022-10-17T04:57:40.176Z,3.53
2022-10-17T04:59:41.788Z,3.20
2022-10-17T05:01:43.461Z,3.40
2022-10-17T05:03:45.532Z,3.53
2022-10-17T05:05:47.579Z,3.97
2022-10-17T05:07:49.178Z,3.30
2022-10-17T05:09:50.766Z,3.40
2022-10-17T05:11:52.450Z,3.40
2022-10-17T05:13:57.155Z,3.37
2022-10-17T05:16:02.312Z,3.17
2022-10-17T05:18:05.629Z,3.57
2022-10-17T05:20:08.383Z,3.50
2022-10-17T05:22:09.980Z,3.60
2022-10-17T05:24:14.453Z,3.50
2022-10-17T05:26:16.310Z,3.40
2022-10-17T05:28:17.885Z,3.83
2022-10-17T05:30:19.591Z,3.40
2022-10-17T05:32:21.162Z,3.70
2022-10-17T05:34:22.787Z,3.40
2022-10-17T05:36:24.476Z,3.63
2022-10-17T05:38:26.914Z,3.50
2022-10-17T05:40:28.527Z,3.80
2022-10-17T05:42:30.328Z,3.80
2022-10-17T05:44:32.124Z,3.80
2022-10-17T05:46:33.735Z,3.50
2022-10-17T05:48:35.419Z,3.23
2022-10-17T05:50:37.078Z,4.00
2022-10-17T05:52:38.685Z,3.77
2022-10-17T05:54:40.306Z,4.00
2022-10-17T05:56:41.910Z,4.20
2022-10-17T05:58:50.444Z,3.50
2022-10-17T06:00:58.320Z,3.60
2022-10-17T06:02:59.874Z,3.57
2022-10-17T06:05:01.495Z,3.80
2022-10-17T06:07:03.121Z,3.50
2022-10-17T06:09:04.860Z,3.50
2022-10-17T06:11:09.932Z,3.60
2022-10-17T06:13:12.230Z,4.20
2022-10-17T06:15:13.930Z,4.00
2022-10-17T06:17:16.420Z,3.97
2022-10-17T06:19:18.221Z,4.00
2022-10-17T06:21:24.987Z,3.90
2022-10-17T06:23:28.043Z,4.00
2022-10-17T06:25:33.794Z,3.47
2022-10-17T06:27:35.424Z,3.63
2022-10-17T06:29:37.014Z,3.60
2022-10-17T06:31:38.782Z,4.00
2022-10-17T06:33:40.671Z,4.07
2022-10-17T06:35:42.319Z,6.60
2022-10-17T06:37:43.984Z,5.60
2022-10-17T06:39:45.671Z,5.33
2022-10-17T06:41:47.341Z,4.90
2022-10-17T06:43:48.976Z,4.83
2022-10-17T06:45:50.667Z,4.27
2022-10-17T06:47:52.412Z,4.90
2022-10-17T06:49:54.041Z,7.07
2022-10-17T06:51:55.720Z,5.70
2022-10-17T06:53:58.642Z,5.47
2022-10-17T06:56:04.569Z,6.10
2022-10-17T06:58:06.221Z,5.70
2022-10-17T07:00:08.332Z,4.93
2022-10-17T07:02:11.432Z,4.70
2022-10-17T07:04:13.066Z,4.40
2022-10-17T07:06:14.706Z,4.57
2022-10-17T07:08:17.074Z,4.97
2022-10-17T07:10:18.815Z,4.30
2022-10-17T07:12:20.398Z,4.20
2022-10-17T07:14:22.193Z,3.90
2022-10-17T07:16:23.886Z,3.63
2022-10-17T07:18:25.458Z,4.03
2022-10-17T07:20:27.151Z,4.03
2022-10-17T07:22:28.913Z,4.50
2022-10-17T07:24:30.528Z,3.90
2022-10-17T07:26:32.155Z,5.40
2022-10-17T07:28:35.811Z,5.60
2022-10-17T07:30:37.514Z,5.70
2022-10-17T07:32:39.117Z,5.33
2022-10-17T07:34:40.718Z,5.63
2022-10-17T07:36:42.419Z,5.37
2022-10-17T07:38:44.143Z,5.57
2022-10-17T07:40:45.707Z,5.97
2022-10-17T07:42:47.349Z,6.70
2022-10-17T07:44:49.022Z,6.27
2022-10-17T07:46:50.687Z,4.87
2022-10-17T07:48:52.357Z,5.10
2022-10-17T07:50:53.933Z,5.63
2022-10-17T07:52:55.528Z,4.50
2022-10-17T07:54:57.182Z,4.50
2022-10-17T07:56:58.964Z,5.07
2022-10-17T07:59:02.679Z,5.40
2022-10-17T08:01:16.205Z,6.23
2022-10-17T08:03:17.947Z,6.40
2022-10-17T08:05:19.547Z,5.53
2022-10-17T08:07:25.325Z,5.37
2022-10-17T08:09:28.573Z,5.23
2022-10-17T08:11:30.289Z,4.83
2022-10-17T08:13:32.297Z,4.87
2022-10-17T08:15:33.982Z,4.77
2022-10-17T08:17:36.878Z,5.03
2022-10-17T08:19:40.640Z,4.90
2022-10-17T08:21:43.692Z,4.60
2022-10-17T08:23:45.283Z,4.47
2022-10-17T08:25:47.036Z,4.00
2022-10-17T08:27:48.918Z,4.37
2022-10-17T08:29:54.649Z,4.10
2022-10-17T08:32:00.914Z,4.77
2022-10-17T08:34:03.481Z,4.47
2022-10-17T08:36:06.200Z,4.00
2022-10-17T08:38:10.001Z,3.97
2022-10-17T08:40:25.814Z,4.80
2022-10-17T08:42:51.247Z,3.90
2022-10-17T08:45:07.676Z,3.80
2022-10-17T08:47:15.644Z,4.30
2022-10-17T08:49:46.973Z,4.00
2022-10-17T08:52:04.617Z,4.70
2022-10-17T08:54:19.773Z,3.47
2022-10-17T08:56:44.504Z,3.43
2022-10-17T08:58:50.196Z,4.07
2022-10-17T09:01:28.808Z,3.73
2022-10-17T09:03:30.436Z,3.70
2022-10-17T09:05:32.052Z,4.10
2022-10-17T09:07:52.872Z,3.90
2022-10-17T09:10:03.621Z,3.53
2022-10-17T09:12:49.971Z,3.70
2022-10-17T09:15:27.839Z,3.37
2022-10-17T09:17:45.175Z,3.90
2022-10-17T09:19:52.047Z,3.53
2022-10-17T09:22:27.379Z,3.77
2022-10-17T09:24:55.659Z,3.37
2022-10-17T09:26:57.275Z,3.60
2022-10-17T09:29:00.838Z,3.40
2022-10-17T09:31:19.504Z,3.40
2022-10-17T09:33:35.174Z,3.37
2022-10-17T09:35:45.946Z,3.43
2022-10-17T09:37:49.647Z,3.40
2022-10-17T09:39:51.466Z,3.73
2022-10-17T09:41:58.760Z,3.90
2022-10-17T09:44:16.340Z,4.03
2022-10-17T09:46:36.688Z,3.63
2022-10-17T09:48:53.305Z,3.30
2022-10-17T09:51:08.319Z,3.40
2022-10-17T09:53:23.504Z,3.33
2022-10-17T09:55:39.135Z,3.57
2022-10-17T09:58:02.236Z,3.77
2022-10-17T10:00:06.345Z,3.70
2022-10-17T10:02:13.873Z,3.60
2022-10-17T10:04:17.337Z,3.30
2022-10-17T10:06:20.961Z,3.67
2022-10-17T10:08:25.440Z,4.30
2022-10-17T10:10:29.068Z,3.53
2022-10-17T10:12:36.369Z,4.00
2022-10-17T10:14:39.722Z,3.33
2022-10-17T10:16:47.128Z,3.63
2022-10-17T10:18:50.971Z,3.63
2022-10-17T10:21:17.894Z,3.30
2022-10-17T10:23:21.470Z,3.77
2022-10-17T10:25:23.103Z,4.18
2022-10-17T10:27:25.804Z,3.47
2022-10-17T10:29:44.617Z,3.50
2022-10-17T10:31:47.397Z,3.22
2022-10-17T10:33:50.900Z,3.40
2022-10-17T10:36:05.200Z,3.20
2022-10-17T10:38:18.188Z,3.15
2022-10-17T10:40:37.410Z,3.30
2022-10-17T10:42:40.483Z,3.00
2022-10-17T10:44:42.600Z,2.92
2022-10-17T10:46:44.522Z,2.90
2022-10-17T10:48:54.142Z,3.25
2022-10-17T10:50:58.341Z,3.65
2022-10-17T10:53:21.231Z,3.23
2022-10-17T10:55:40.543Z,3.25
2022-10-17T10:57:45.264Z,3.07
2022-10-17T10:59:58.436Z,3.38
2022-10-17T11:03:21.840Z,3.40
2022-10-17T11:05:23.378Z,3.20
2022-10-17T11:07:39.616Z,3.20
2022-10-17T11:10:08.274Z,3.20
2022-10-17T11:12:25.193Z,3.40
2022-10-17T11:14:48.653Z,3.08
2022-10-17T11:17:06.056Z,3.50
2022-10-17T11:19:16.304Z,3.40
2022-10-17T11:21:47.741Z,2.70
2022-10-17T11:24:00.085Z,3.10
2022-10-17T11:26:08.794Z,3.20
2022-10-17T11:28:22.705Z,3.00
2022-10-17T11:30:28.923Z,3.20
2022-10-17T11:32:48.097Z,3.30
2022-10-17T11:34:53.656Z,3.25
2022-10-17T11:37:01.931Z,2.85
2022-10-17T11:39:06.524Z,3.17
2022-10-17T11:41:17.340Z,3.00
2022-10-17T11:43:56.689Z,2.80
2022-10-17T11:46:16.166Z,3.10
2022-10-17T11:48:37.375Z,3.15
2022-10-17T11:53:09.217Z,3.17
2022-10-17T11:55:24.807Z,2.80
2022-10-17T11:57:32.827Z,3.60
2022-10-17T12:00:00.627Z,3.00
2022-10-17T12:02:06.424Z,3.00
2022-10-17T12:04:41.978Z,2.55
2022-10-17T12:07:11.143Z,2.90
2022-10-17T12:09:52.476Z,3.10
2022-10-17T12:11:57.317Z,3.22
2022-10-17T12:14:00.079Z,2.90
2022-10-17T12:16:19.683Z,3.10
2022-10-17T12:18:28.485Z,3.00
2022-10-17T12:20:33.288Z,3.10
2022-10-17T12:22:34.882Z,2.70
2022-10-17T12:24:42.744Z,2.90
2022-10-17T12:26:44.308Z,2.72
2022-10-17T12:28:48.063Z,3.08
2022-10-17T12:30:53.315Z,2.88
2022-10-17T12:33:22.689Z,3.63
2022-10-17T12:35:26.148Z,3.08
2022-10-17T12:37:45.736Z,2.92
2022-10-17T12:39:47.333Z,3.15
2022-10-17T12:41:48.904Z,3.10
2022-10-17T12:43:54.467Z,3.28
2022-10-17T12:46:05.440Z,3.47
2022-10-17T12:48:10.013Z,2.90
2022-10-17T12:50:53.807Z,2.80
2022-10-17T12:53:03.623Z,2.67
2022-10-17T12:55:11.932Z,2.95
2022-10-17T12:57:50.583Z,3.13
2022-10-17T12:59:56.628Z,2.70
2022-10-17T13:02:03.557Z,2.80
2022-10-17T13:04:08.607Z,2.60
2022-10-17T13:06:24.889Z,2.67
2022-10-17T13:08:54.862Z,3.33
2022-10-17T13:10:58.342Z,2.58
2022-10-17T13:13:17.037Z,2.92
2022-10-17T13:15:20.144Z,3.00
2022-10-17T13:17:25.683Z,2.90
2022-10-17T13:19:31.772Z,2.70
2022-10-17T13:21:33.401Z,2.88
2022-10-17T13:23:37.727Z,3.30
2022-10-17T13:25:39.726Z,2.90
2022-10-17T13:27:41.365Z,2.33
2022-10-17T13:29:44.660Z,2.92
2022-10-17T13:31:54.970Z,2.60
2022-10-17T13:33:59.351Z,2.60
2022-10-17T13:36:04.734Z,2.70
2022-10-17T13:38:09.660Z,2.50
2022-10-17T13:40:49.485Z,2.53
2022-10-17T13:42:48.893Z,3.13
2022-10-17T13:44:50.743Z,2.85
2022-10-17T13:46:52.970Z,2.53
2022-10-17T13:48:54.628Z,2.50
2022-10-17T13:51:03.046Z,2.85
2022-10-17T13:53:08.017Z,2.60
2022-10-17T13:55:17.489Z,2.50
2022-10-17T13:57:28.382Z,2.67
2022-10-17T13:59:41.937Z,2.83
2022-10-17T14:01:43.579Z,2.45
2022-10-17T14:03:49.137Z,2.65
2022-10-17T14:08:22.957Z,2.70
2022-10-17T14:10:37.492Z,2.42
2022-10-17T14:12:43.019Z,2.97
2022-10-17T14:15:10.404Z,2.80
2022-10-17T14:17:19.116Z,2.53
2022-10-17T14:19:36.948Z,2.83
2022-10-17T14:21:44.167Z,2.83
2022-10-17T14:23:46.364Z,2.78
2022-10-17T14:25:48.117Z,2.63
2022-10-17T14:28:04.033Z,2.90
2022-10-17T14:30:51.659Z,2.45
2022-10-17T14:32:48.670Z,2.70
2022-10-17T14:35:00.705Z,2.67
2022-10-17T14:37:47.694Z,2.58
2022-10-17T14:39:51.359Z,2.95
2022-10-17T14:41:53.965Z,2.53
2022-10-17T14:43:59.112Z,2.45
2022-10-17T14:46:02.095Z,2.42
2022-10-17T14:48:17.438Z,2.60
2022-10-17T14:50:25.978Z,2.85
2022-10-17T14:52:32.366Z,2.85
2022-10-17T14:54:36.343Z,3.00
2022-10-17T14:56:41.699Z,2.80
2022-10-17T14:58:43.238Z,2.78
2022-10-17T15:02:14.840Z,2.63
2022-10-17T15:04:16.952Z,2.78
2022-10-17T15:06:21.235Z,2.97
2022-10-17T15:08:24.483Z,2.90
2022-10-17T15:10:29.391Z,2.80
2022-10-17T15:12:32.774Z,3.10
2022-10-17T15:14:34.558Z,3.15
2022-10-17T15:16:37.251Z,2.53
2022-10-17T15:18:38.805Z,2.85
2022-10-17T15:20:40.582Z,2.78
2022-10-17T15:22:43.561Z,3.08
2022-10-17T15:24:46.299Z,3.40
2022-10-17T15:26:50.976Z,3.03
2022-10-17T15:28:54.054Z,3.35
2022-10-17T15:30:55.616Z,3.38
2022-10-17T15:32:57.519Z,3.60
2022-10-17T15:34:59.161Z,3.67
2022-10-17T15:37:00.934Z,3.38
2022-10-17T15:39:03.529Z,3.42
2022-10-17T15:41:05.191Z,4.30
2022-10-17T15:43:06.820Z,4.03
2022-10-17T15:45:15.169Z,3.90
2022-10-17T15:47:31.507Z,3.63
2022-10-17T15:49:34.675Z,4.60
2022-10-17T15:51:36.304Z,4.28
2022-10-17T15:53:37.995Z,3.63
2022-10-17T15:55:39.749Z,3.40
2022-10-17T15:57:43.719Z,3.90
2022-10-17T15:59:47.041Z,3.30
2022-10-17T16:01:48.783Z,3.70
2022-10-17T16:03:50.830Z,3.67
2022-10-17T16:05:53.778Z,3.30
2022-10-17T16:07:56.059Z,3.33
2022-10-17T16:09:57.672Z,2.97
2022-10-17T16:12:01.176Z,3.50
2022-10-17T16:14:10.053Z,3.33
2022-10-17T16:16:12.299Z,3.20
2022-10-17T16:18:14.189Z,3.58
2022-10-17T16:20:16.450Z,3.20
2022-10-17T16:22:36.755Z,3.40
2022-10-17T16:24:38.296Z,3.35
2022-10-17T16:26:40.466Z,4.32
2022-10-17T16:28:46.343Z,4.88
2022-10-17T16:30:49.295Z,3.50
2022-10-17T16:32:51.706Z,3.72
2022-10-17T16:34:53.249Z,3.05
2022-10-17T16:36:54.818Z,3.10
2022-10-17T16:38:56.560Z,3.60
2022-10-17T16:40:58.106Z,3.10
2022-10-17T16:43:00.138Z,3.30
2022-10-17T16:45:01.794Z,4.22
2022-10-17T16:47:06.265Z,2.95
2022-10-17T16:49:08.151Z,2.92
2022-10-17T16:51:11.251Z,3.40
2022-10-17T16:53:13.011Z,3.80
2022-10-17T16:55:15.050Z,3.50
2022-10-17T16:57:16.720Z,2.92
2022-10-17T16:59:18.249Z,3.03
2022-10-17T17:01:23.329Z,3.75
2022-10-17T17:03:24.876Z,3.58
2022-10-17T17:05:26.535Z,3.92
2022-10-17T17:07:29.734Z,4.00
2022-10-17T17:09:31.774Z,3.20
2022-10-17T17:11:33.305Z,3.45
2022-10-17T17:13:35.219Z,3.55
2022-10-17T17:15:38.416Z,3.30
2022-10-17T17:17:55.870Z,3.80
2022-10-17T17:19:57.888Z,3.60
2022-10-17T17:21:59.410Z,4.32
2022-10-17T17:24:02.528Z,4.63
2022-10-17T17:26:13.361Z,3.92
2022-10-17T17:28:14.884Z,3.83
2022-10-17T17:30:16.616Z,3.92
2022-10-17T17:32:18.150Z,4.78
2022-10-17T17:34:19.756Z,3.70
2022-10-17T17:36:27.874Z,4.38
2022-10-17T17:38:30.952Z,7.22
2022-10-17T17:40:34.512Z,9.77
2022-10-17T17:42:36.043Z,20.98
2022-10-17T17:44:37.683Z,21.73
2022-10-17T17:46:39.508Z,22.15
2022-10-17T17:48:42.111Z,14.70
2022-10-17T17:50:44.234Z,21.70
2022-10-17T17:52:48.843Z,10.95
2022-10-17T17:54:50.486Z,6.60
2022-10-17T17:56:52.078Z,5.63
2022-10-17T17:59:03.101Z,10.10
2022-10-17T18:01:18.918Z,5.65
2022-10-17T18:03:20.551Z,4.05
2022-10-17T18:05:22.205Z,3.60
2022-10-17T18:07:24.514Z,3.58
2022-10-17T18:09:26.051Z,4.13
2022-10-17T18:11:28.648Z,3.20
2022-10-17T18:13:30.342Z,3.55
2022-10-17T18:15:31.985Z,3.90
2022-10-17T18:17:34.103Z,3.75
2022-10-17T18:19:35.864Z,4.50
2022-10-17T18:21:38.002Z,3.50
2022-10-17T18:23:41.041Z,3.90
2022-10-17T18:25:42.695Z,3.60
2022-10-17T18:27:44.303Z,3.60
2022-10-17T18:29:46.248Z,3.50
2022-10-17T18:31:47.836Z,3.85
2022-10-17T18:33:52.594Z,7.15
2022-10-17T18:35:58.104Z,8.77
2022-10-17T18:37:59.936Z,7.32
2022-10-17T18:40:03.203Z,7.10
2022-10-17T18:42:05.827Z,6.78
2022-10-17T18:44:07.368Z,6.07
2022-10-17T18:46:15.061Z,5.35
2022-10-17T18:48:16.776Z,5.22
2022-10-17T18:50:22.962Z,5.00
2022-10-17T18:52:24.859Z,5.18
2022-10-17T18:54:26.458Z,5.15
2022-10-17T18:56:28.595Z,4.93
2022-10-17T18:58:30.238Z,5.47
2022-10-17T19:00:31.827Z,5.28
2022-10-17T19:02:35.671Z,5.05
2022-10-17T19:04:40.263Z,5.25
2022-10-17T19:06:42.568Z,4.88
2022-10-17T19:08:45.296Z,4.88
2022-10-17T19:10:46.899Z,4.05
2022-10-17T19:12:48.540Z,4.75
2022-10-17T19:14:50.907Z,4.75
2022-10-17T19:16:52.845Z,4.50
2022-10-17T19:18:59.085Z,4.63
2022-10-17T19:21:11.185Z,4.60
2022-10-17T19:23:12.833Z,4.93
2022-10-17T19:25:15.539Z,4.90
2022-10-17T19:27:17.213Z,4.78
2022-10-17T19:29:19.709Z,4.85
2022-10-17T19:31:26.818Z,4.80
2022-10-17T19:35:35.995Z,4.55
2022-10-17T19:37:37.991Z,4.40
2022-10-17T19:39:39.624Z,5.07
2022-10-17T19:41:45.931Z,4.70
2022-10-17T19:43:47.499Z,4.32
2022-10-17T19:46:00.802Z,4.60
2022-10-17T19:48:02.431Z,4.32
2022-10-17T19:50:04.819Z,4.70
2022-10-17T19:59:21.961Z,4.60
2022-10-17T20:01:26.443Z,4.70
2022-10-17T20:03:30.066Z,4.60
2022-10-17T20:05:31.620Z,4.32
2022-10-17T20:07:33.254Z,4.35
2022-10-17T20:09:34.829Z,4.72
